Time;durP1;ratioP1;P1;durP2;ratioP2;P2;SDS_P1;SDS_P2;PMS_P1;PMS_P2;Temp;Humidity;BMP_temperature;BMP_pressure;BME280_temperature;BME280_humidity;BME280_pressure;Samples;Min_cycle;Max_cycle;Signal;HPM_P1;HPM_P2
2022/09/09 00:02:13;;;;;;;64.43;35.70;;;;;;;13.16;100.00;155828.56;4998386;28;20041;-72
2022/09/09 00:04:40;;;;;;;98.10;35.58;;;;;;;13.13;100.00;155820.81;5015554;28;20097;-71
2022/09/09 00:07:29;;;;;;;63.13;34.92;;;;;;;13.13;100.00;155822.16;4972223;28;20034;-72
2022/09/09 00:10:09;;;;;;;63.25;37.10;;;;;;;13.19;100.00;155836.28;4998725;28;20041;-71
2022/09/09 00:12:51;;;;;;;67.20;37.72;;;;;;;13.19;100.00;155837.56;5000228;28;20056;-72
2022/09/09 00:15:25;;;;;;;68.28;38.33;;;;;;;13.18;100.00;155834.97;4978626;28;20400;-70
2022/09/09 00:17:57;;;;;;;67.47;32.40;;;;;;;13.18;100.00;155834.97;4973039;28;20030;-70
2022/09/09 00:20:32;;;;;;;;;;;;;;;13.14;100.00;155823.41;4990925;28;20124;-71
2022/09/09 00:23:14;;;;;;;61.90;30.10;;;;;;;13.10;100.00;155813.16;5002094;28;19917;-71
2022/09/09 00:25:45;;;;;;;129.48;32.15;;;;;;;13.11;100.00;155815.69;5022721;28;20034;-70
2022/09/09 00:28:22;;;;;;;63.42;30.92;;;;;;;13.04;100.00;155800.28;4987430;28;20040;-71
2022/09/09 00:30:49;;;;;;;55.22;32.10;;;;;;;13.02;100.00;155795.16;5003752;28;20041;-70
2022/09/09 00:33:21;;;;;;;52.88;31.98;;;;;;;13.01;100.00;155791.28;5002886;28;20113;-71
2022/09/09 00:35:51;;;;;;;82.50;32.97;;;;;;;13.02;100.00;155793.88;4995731;28;20042;-70
2022/09/09 00:38:54;;;;;;;57.05;31.83;;;;;;;12.94;100.00;155773.28;4997900;28;20030;-71
2022/09/09 00:41:35;;;;;;;74.03;29.52;;;;;;;12.90;100.00;155763.03;4966239;28;20518;-71
2022/09/09 00:44:23;;;;;;;57.63;31.75;;;;;;;12.96;100.00;155778.44;4956169;28;20050;-71
2022/09/09 00:47:18;;;;;;;52.25;31.52;;;;;;;12.97;100.00;155781.00;4993481;28;20037;-71
2022/09/09 00:50:21;;;;;;;53.78;32.75;;;;;;;12.95;100.00;155777.16;4986426;28;20038;-71
2022/09/09 00:53:31;;;;;;;64.20;34.28;;;;;;;12.99;100.00;155786.16;4983419;28;20038;-71
2022/09/09 00:56:13;;;;;;;61.35;35.30;;;;;;;12.98;100.00;155784.88;4982660;28;20046;-71
2022/09/09 00:58:43;;;;;;;55.00;32.45;;;;;;;12.97;100.00;155782.28;4996298;28;20038;-71
2022/09/09 01:01:12;;;;;;;60.78;34.33;;;;;;;12.99;100.00;155786.16;4995184;28;20412;-72
2022/09/09 01:03:49;;;;;;;64.25;34.50;;;;;;;12.96;100.00;155779.75;4997774;28;20119;-71
2022/09/09 01:06:31;;;;;;;63.60;34.72;;;;;;;12.95;100.00;155775.88;4991912;28;20074;-72
2022/09/09 01:09:12;;;;;;;60.55;33.03;;;;;;;12.88;100.00;155759.16;4967220;28;20057;-72
2022/09/09 01:12:03;;;;;;;74.88;32.85;;;;;;;12.79;100.00;155736.03;4965444;28;20044;-71
2022/09/09 01:14:34;;;;;;;98.40;33.13;;;;;;;12.74;100.00;155723.22;4986203;28;20058;-71
2022/09/09 01:17:17;;;;;;;71.63;33.08;;;;;;;12.73;100.00;155720.63;5008934;28;20042;-71
2022/09/09 01:20:01;;;;;;;56.90;33.35;;;;;;;12.77;100.00;155732.22;4975286;28;20038;-71
2022/09/09 01:22:52;;;;;;;58.90;32.65;;;;;;;12.74;100.00;155723.22;4978405;28;20026;-71
2022/09/09 01:25:47;;;;;;;59.47;31.75;;;;;;;12.74;100.00;155724.47;4986143;28;20376;-71
2022/09/09 01:28:25;;;;;;;50.95;32.17;;;;;;;12.79;100.00;155736.03;4962730;28;20052;-71
2022/09/09 01:30:53;;;;;;;51.90;29.73;;;;;;;12.78;100.00;155734.75;4976874;28;20101;-71
2022/09/09 01:33:22;;;;;;;54.88;32.47;;;;;;;12.78;100.00;155733.47;4970489;28;20030;-72
2022/09/09 01:36:03;;;;;;;92.97;30.48;;;;;;;12.84;100.00;155750.16;4996288;28;20517;-71
2022/09/09 01:38:36;;;;;;;74.90;29.50;;;;;;;12.78;100.00;155733.47;4999946;28;20053;-71
2022/09/09 01:41:02;;;;;;;42.53;29.60;;;;;;;12.75;100.00;155727.06;4965747;28;20030;-71
2022/09/09 01:43:39;;;;;;;59.05;30.50;;;;;;;12.77;100.00;155730.88;4999893;28;20045;-70
2022/09/09 01:46:05;;;;;;;41.47;25.90;;;;;;;12.72;100.00;155718.09;4975348;28;20141;-71
2022/09/09 01:48:33;;;;;;;48.42;29.45;;;;;;;12.73;100.00;155721.91;4991984;28;20670;-71
2022/09/09 01:51:08;;;;;;;47.25;29.50;;;;;;;12.70;100.00;155714.22;4990392;28;20042;-71
2022/09/09 01:53:34;;;;;;;50.67;28.90;;;;;;;12.73;100.00;155720.63;4978245;28;20048;-71
2022/09/09 01:56:37;;;;;;;72.63;31.35;;;;;;;12.69;100.00;155711.63;5000561;28;20112;-70
2022/09/09 01:59:54;;;;;;;55.03;27.48;;;;;;;12.64;100.00;155698.81;4998974;28;20049;-71
2022/09/09 02:02:26;;;;;;;43.78;27.75;;;;;;;12.64;100.00;155698.81;5004222;28;20053;-71
2022/09/09 02:05:16;;;;;;;56.90;29.08;;;;;;;12.64;100.00;155698.81;4993489;28;20100;-71
2022/09/09 02:07:47;;;;;;;67.95;27.52;;;;;;;12.60;100.00;155688.50;4999513;28;20109;-72
2022/09/09 02:10:42;;;;;;;48.60;26.27;;;;;;;12.58;100.00;155683.38;4971441;28;20629;-71
2022/09/09 02:13:17;;;;;;;44.85;25.70;;;;;;;12.58;100.00;155683.38;4988884;28;20038;-71
2022/09/09 02:16:15;;;;;;;45.95;26.08;;;;;;;12.58;100.00;155684.69;4980426;28;20548;-72
2022/09/09 02:18:53;;;;;;;61.58;25.75;;;;;;;12.54;100.00;155673.09;4977114;28;20724;-73
2022/09/09 02:21:25;;;;;;;;;;;;;;;12.50;100.00;155662.81;4979744;28;20388;-73
2022/09/09 02:23:52;;;;;;;;;;;;;;;12.46;100.00;155655.09;4998506;28;20004;-71
2022/09/09 02:26:21;;;;;;;;;;;;;;;12.43;100.00;155646.09;4982516;28;19917;-72
2022/09/09 02:28:54;;;;;;;;;;;;;;;12.40;100.00;155639.72;5000227;28;19914;-71
2022/09/09 02:31:21;;;;;;;;;;;;;;;12.36;100.00;155628.16;5006774;28;20016;-71
2022/09/09 02:33:50;;;;;;;;;;;;;;;12.34;100.00;155622.97;4986932;28;19929;-71
2022/09/09 02:36:17;;;;;;;;;;;;;;;12.35;100.00;155625.56;4999606;28;20432;-73
2022/09/09 02:38:50;;;;;;;;;;;;;;;12.31;100.00;155615.31;5014404;28;20008;-71
2022/09/09 02:41:21;;;;;;;;;;;;;;;12.36;100.00;155628.16;4990625;28;19914;-72
2022/09/09 02:43:47;;;;;;;;;;;;;;;12.38;100.00;155634.56;4990590;28;19922;-72
2022/09/09 02:46:33;;;;;;;;;;;;;;;12.36;100.00;155628.16;4987168;28;19919;-71
2022/09/09 02:49:17;;;;;;;;;;;;;;;12.32;100.00;155617.84;5001324;28;19914;-71
2022/09/09 02:52:16;;;;;;;;;;;;;;;12.29;100.00;155610.19;4984664;28;19918;-71
2022/09/09 02:54:43;;;;;;;;;;;;;;;12.31;100.00;155615.31;4999335;28;19917;-71
2022/09/09 02:57:25;;;;;;;;;;;;;;;12.29;100.00;155610.19;4990295;28;20051;-70
2022/09/09 02:59:52;;;;;;;;;;;;;;;12.29;100.00;155611.44;5006865;28;19921;-71
2022/09/09 03:02:18;;;;;;;;;;;;;;;12.27;100.00;155607.59;4988146;28;19921;-71
2022/09/09 03:04:50;;;;;;;;;;;;;;;12.26;100.00;155603.72;5012556;28;19921;-70
2022/09/09 03:07:16;;;;;;;;;;;;;;;12.24;100.00;155599.91;5009383;28;19913;-72
2022/09/09 03:09:44;;;;;;;;;;;;;;;12.21;100.00;155592.19;5018166;28;19924;-71
2022/09/09 03:12:10;;;;;;;;;;;;;;;12.22;100.00;155593.47;4970335;28;19914;-70
2022/09/09 03:14:38;;;;;;;;;;;;;;;12.20;100.00;155589.59;4985356;28;19914;-71
2022/09/09 03:17:04;;;;;;;;;;;;;;;12.18;100.00;155584.47;4984768;28;19913;-71
2022/09/09 03:19:36;;;;;;;;;;;;;;;12.17;100.00;155580.66;5015894;28;19913;-71
2022/09/09 03:22:03;;;;;;;;;;;;;;;12.19;100.00;155585.78;4960212;28;19917;-71
2022/09/09 03:24:30;;;;;;;;;;;;;;;12.18;100.00;155584.47;5000370;28;19971;-71
2022/09/09 03:26:55;;;;;;;;;;;;;;;12.19;100.00;155587.06;5000797;28;19956;-71
2022/09/09 03:29:21;;;;;;;;;;;;;;;12.20;100.00;155588.31;5003689;28;21032;-71
2022/09/09 03:31:47;;;;;;;;;;;;;;;12.17;100.00;155581.91;4975609;28;19928;-71
2022/09/09 03:34:13;;;;;;;;;;;;;;;12.15;100.00;155576.78;4998339;28;19920;-71
2022/09/09 03:36:40;;;;;;;;;;;;;;;12.05;100.00;155551.06;4992822;28;19913;-72
2022/09/09 03:39:06;;;;;;;;;;;;;;;12.01;100.00;155542.09;4973917;28;19921;-71
2022/09/09 03:41:32;;;;;;;;;;;;;;;12.00;100.00;155538.28;5014258;28;19972;-71
2022/09/09 03:43:59;;;;;;;;;;;;;;;12.01;100.00;155542.09;4984783;28;20279;-70
2022/09/09 03:46:27;;;;;;;;;;;;;;;12.00;100.00;155538.28;4995437;28;19976;-71
2022/09/09 03:48:54;;;;;;;;;;;;;;;11.97;100.00;155531.81;5006457;28;20015;-71
2022/09/09 03:51:19;;;;;;;;;;;;;;;11.98;100.00;155533.09;5003478;28;19917;-71
2022/09/09 03:53:46;;;;;;;;;;;;;;;12.02;100.00;155543.41;5004749;28;19920;-71
2022/09/09 03:56:12;;;;;;;;;;;;;;;12.04;100.00;155548.53;4981061;28;20020;-71
2022/09/09 03:58:38;;;;;;;;;;;;;;;11.95;100.00;155526.69;5000025;28;20016;-71
2022/09/09 04:01:08;;;;;;;;;;;;;;;11.92;100.00;155517.69;4993546;28;19917;-71
2022/09/09 04:03:34;;;;;;;;;;;;;;;11.91;100.00;155515.16;4989898;28;19920;-71
2022/09/09 04:06:03;;;;;;;;;;;;;;;11.93;100.00;155521.56;4996829;28;19913;-71
2022/09/09 04:08:33;;;;;;;;;;;;;;;11.91;100.00;155515.16;4993551;28;20448;-71
2022/09/09 04:11:05;;;;;;;;;;;;;;;11.88;100.00;155508.66;5000896;28;20625;-71
2022/09/09 04:13:30;;;;;;;;;;;;;;;11.91;100.00;155516.44;4979482;28;19920;-71
2022/09/09 04:15:58;;;;;;;;;;;;;;;11.96;100.00;155527.97;5011123;28;19917;-70
2022/09/09 04:18:24;;;;;;;;;;;;;;;11.95;100.00;155525.41;5015711;28;19917;-71
2022/09/09 04:20:50;;;;;;;;;;;;;;;11.92;100.00;155517.69;4985198;28;20016;-71
2022/09/09 04:23:18;;;;;;;;;;;;;;;11.87;100.00;155506.13;5003025;28;19983;-72
2022/09/09 04:25:48;;;;;;;;;;;;;;;11.87;100.00;155506.13;5001183;28;19924;-72
2022/09/09 04:28:15;;;;;;;;;;;;;;;11.88;100.00;155508.66;4999611;28;19917;-72
2022/09/09 04:30:40;;;;;;;;;;;;;;;11.86;100.00;155504.78;5002991;28;19918;-72
2022/09/09 04:33:06;;;;;;;;;;;;;;;11.86;100.00;155504.78;5000237;28;19917;-70
2022/09/09 04:35:32;;;;;;;;;;;;;;;11.89;100.00;155511.25;5009419;28;20016;-71
2022/09/09 04:37:58;;;;;;;;;;;;;;;11.92;100.00;155518.97;4986801;28;19913;-71
2022/09/09 04:40:25;;;;;;;;;;;;;;;11.95;100.00;155526.69;5003318;28;20293;-71
2022/09/09 04:42:51;;;;;;;;;;;;;;;11.96;100.00;155529.28;5007167;28;20016;-71
2022/09/09 04:45:16;;;;;;;;;;;;;;;11.94;100.00;155524.16;5007002;28;19940;-71
2022/09/09 04:47:42;;;;;;;;;;;;;;;11.96;100.00;155527.97;5006521;28;19920;-71
2022/09/09 04:50:08;;;;;;;;;;;;;;;11.96;100.00;155527.97;4984422;28;19921;-71
2022/09/09 04:52:39;;;;;;;;;;;;;;;11.92;100.00;155518.97;5017058;28;19920;-71
2022/09/09 04:55:05;;;;;;;;;;;;;;;11.91;100.00;155516.44;4971336;28;20029;-71
2022/09/09 04:57:32;;;;;;;;;;;;;;;11.92;100.00;155518.97;5012887;28;20004;-71
2022/09/09 04:59:59;;;;;;;;;;;;;;;11.88;100.00;155508.66;4992283;28;20313;-71
2022/09/09 05:02:26;;;;;;;;;;;;;;;11.82;100.00;155494.53;4982512;28;20470;-71
2022/09/09 05:04:51;;;;;;;;;;;;;;;11.75;100.00;155476.53;4989930;28;20517;-70
2022/09/09 05:07:17;;;;;;;;;;;;;;;11.68;100.00;155458.63;5001500;28;20012;-70
2022/09/09 05:09:44;;;;;;;;;;;;;;;11.63;100.00;155445.75;5001387;28;19917;-71
2022/09/09 05:12:11;;;;;;;;;;;;;;;11.59;100.00;155436.78;4983094;28;19959;-70
2022/09/09 05:14:41;;;;;;;;;;;;;;;11.63;100.00;155447.03;4989283;28;20343;-71
2022/09/09 05:17:07;;;;;;;;;;;;;;;11.65;100.00;155452.16;4999342;28;20483;-71
2022/09/09 05:19:36;;;;;;;;;;;;;;;11.71;100.00;155465.00;4995223;28;20298;-71
2022/09/09 05:22:02;;;;;;;;;;;;;;;11.75;100.00;155476.53;5014038;28;19914;-71
2022/09/09 05:24:36;;;;;;;;;;;;;;;11.81;100.00;155492.00;5006937;28;19914;-70
2022/09/09 05:27:02;;;;;;;;;;;;;;;11.84;100.00;155498.38;4997893;28;19917;-71
2022/09/09 05:29:28;;;;;;;;;;;;;;;11.89;100.00;155511.25;5005991;28;20310;-71
2022/09/09 05:31:55;;;;;;;;;;;;;;;11.93;100.00;155521.56;4980175;28;19913;-71
2022/09/09 05:34:21;;;;;;;;;;;;;;;11.97;100.00;155530.56;4987292;28;19917;-71
2022/09/09 05:36:47;;;;;;;;;;;;;;;12.02;100.00;155544.69;5004987;28;19913;-71
2022/09/09 05:39:14;;;;;;;;;;;;;;;12.03;100.00;155547.22;5022185;28;19920;-71
2022/09/09 05:41:40;;;;;;;;;;;;;;;12.10;100.00;155562.66;4999914;28;19913;-71
2022/09/09 05:44:06;;;;;;;;;;;;;;;12.14;100.00;155574.19;4995327;28;19918;-71
2022/09/09 05:46:37;;;;;;;;;;;;;;;12.25;100.00;155601.19;5009177;28;19917;-70
2022/09/09 05:49:05;;;;;;;;;;;;;;;12.29;100.00;155610.19;4959067;28;20323;-71
2022/09/09 05:51:32;;;;;;;;;;;;;;;12.34;100.00;155622.97;4989471;28;19921;-70
2022/09/09 05:54:01;;;;;;;;;;;;;;;12.44;100.00;155648.69;4992642;28;20031;-71
2022/09/09 05:56:30;;;;;;;;;;;;;;;12.51;100.00;155666.69;5002316;28;19926;-70
2022/09/09 05:58:59;;;;;;;;;;;;;;;12.56;100.00;155679.50;4994663;28;19917;-71
2022/09/09 06:01:26;;;;;;;;;;;;;;;12.66;100.00;155703.94;4984644;28;20281;-71
2022/09/09 06:03:52;;;;;;;;;;;;;;;12.67;100.00;155706.50;5005635;28;19992;-71
2022/09/09 06:06:20;;;;;;;;;;;;;;;12.73;100.00;155720.63;4987572;28;19921;-71
2022/09/09 06:08:46;;;;;;;;;;;;;;;12.77;100.00;155730.88;4991558;28;20323;-72
2022/09/09 06:11:18;;;;;;;;;;;;;;;12.78;100.00;155733.47;4999994;28;20823;-72
2022/09/09 06:13:45;;;;;;;;;;;;;;;12.73;100.00;155721.91;5007373;28;19917;-72
2022/09/09 06:16:13;;;;;;;;;;;;;;;12.76;100.00;155729.63;4989756;28;19917;-72
2022/09/09 06:18:40;;;;;;;;;;;;;;;12.80;100.00;155738.63;5008771;28;19924;-72
2022/09/09 06:21:07;;;;;;;;;;;;;;;12.85;100.00;155752.75;5003039;28;19913;-71
2022/09/09 06:23:35;;;;;;;;;;;;;;;12.88;100.00;155757.88;5016530;28;19956;-71
2022/09/09 06:26:06;;;;;;;;;;;;;;;12.83;100.00;155746.34;5003440;28;20007;-71
2022/09/09 06:28:34;;;;;;;;;;;;;;;12.87;100.00;155756.59;5007417;28;20011;-70
2022/09/09 06:31:00;;;;;;;;;;;;;;;12.93;100.00;155772.00;5007716;28;20004;-70
2022/09/09 06:33:27;;;;;;;;;;;;;;;12.92;100.00;155768.16;4978228;28;19917;-71
2022/09/09 06:35:53;;;;;;;;;;;;;;;12.95;100.00;155777.16;5004045;28;19917;-71
2022/09/09 06:38:21;;;;;;;;;;;;;;;13.00;100.00;155788.75;5003644;28;19913;-70
2022/09/09 06:40:54;;;;;;;;;;;;;;;13.08;100.00;155809.28;5017315;22;19923;-75
2022/09/09 06:43:20;;;;;;;;;;;;;;;13.14;100.00;155823.41;5004325;28;20356;-74
2022/09/09 06:45:54;;;;;;;;;;;;;;;13.20;100.00;155838.81;5015290;28;19917;-76
2022/09/09 06:48:20;;;;;;;;;;;;;;;13.31;100.00;155867.16;5026109;28;19917;-74
2022/09/09 06:50:46;;;;;;;;;;;;;;;13.37;100.00;155882.59;5023163;28;19935;-76
2022/09/09 06:53:16;;;;;;;;;;;;;;;13.42;100.00;155895.41;5027022;28;19936;-76
2022/09/09 06:55:44;;;;;;;;;;;;;;;13.53;100.00;155922.44;5017855;28;20409;-74
2022/09/09 06:58:11;;;;;;;;;;;;;;;13.66;100.00;155953.28;4991682;28;19917;-75
2022/09/09 07:00:40;;;;;;;;;;;;;;;13.69;100.00;155962.25;4993597;28;20293;-75
2022/09/09 07:03:06;;;;;;;;;;;;;;;13.72;100.00;155968.72;5027178;28;19913;-75
2022/09/09 07:05:31;;;;;;;;;;;;;;;13.78;100.00;155985.41;5009112;28;19923;-76
2022/09/09 07:07:57;;;;;;;;;;;;;;;13.82;100.00;155994.41;5024089;28;19917;-77
2022/09/09 07:10:23;;;;;;;;;;;;;;;13.80;100.00;155990.53;5008620;28;19917;-77
2022/09/09 07:12:55;;;;;;;;;;;;;;;13.84;100.00;155999.53;5022902;28;19921;-75
2022/09/09 07:15:23;;;;;;;;;;;;;;;13.95;100.00;156027.81;5023530;28;20403;-77
2022/09/09 07:17:49;;;;;;;;;;;;;;;13.99;100.00;156038.13;4995239;28;19988;-77
2022/09/09 07:20:15;;;;;;;;;;;;;;;13.82;100.00;155995.72;5003893;28;19987;-76
2022/09/09 07:22:41;;;;;;;;;;;;;;;14.08;100.00;156059.97;5023252;28;20253;-77
2022/09/09 07:25:07;;;;;;;;;;;;;;;14.24;100.00;156098.53;4988057;28;19913;-77
2022/09/09 07:27:33;;;;;;;;;;;;;;;14.38;100.00;156134.56;4988575;28;19959;-78
2022/09/09 07:29:59;;;;;;;;;;;;;;;14.58;100.00;156184.78;5006675;28;19917;-77
2022/09/09 07:32:25;;;;;;;;;;;;;;;14.71;100.00;156218.22;4991753;28;19971;-75
2022/09/09 07:34:51;;;;;;;;;;;;;;;14.63;100.00;156196.34;4993646;28;19918;-76
2022/09/09 07:37:17;;;;;;;;;;;;;;;14.64;100.00;156198.94;5016798;28;19917;-76
2022/09/09 07:39:44;;;;;;;;;;;;;;;14.73;100.00;156223.34;4994773;28;20360;-76
2022/09/09 07:42:11;;;;;;;;;;;;;;;14.74;100.00;156225.91;5018122;28;19914;-77
2022/09/09 07:44:39;;;;;;;;;;;;;;;14.84;100.00;156249.06;5005813;28;19913;-76
2022/09/09 07:47:09;;;;;;;;;;;;;;;14.82;100.00;156243.91;4996069;28;19916;-76
2022/09/09 07:49:39;;;;;;;;;;;;;;;14.86;100.00;156254.19;5009420;28;19916;-76
2022/09/09 07:52:06;;;;;;;;;;;;;;;14.86;100.00;156254.19;4996268;28;19917;-75
2022/09/09 07:54:32;;;;;;;;;;;;;;;14.99;100.00;156287.63;5010932;28;19917;-75
2022/09/09 07:56:58;;;;;;;;;;;;;;;15.01;100.00;156291.50;5023594;28;20433;-76
2022/09/09 07:59:27;;;;;;;;;;;;;;;15.01;100.00;156291.50;5014578;28;19939;-76
2022/09/09 08:01:54;;;;;;;;;;;;;;;15.01;100.00;156291.50;5006485;28;19917;-75
2022/09/09 08:04:22;;;;;;;;;;;;;;;15.08;100.00;156310.81;5006751;28;19917;-76
2022/09/09 08:06:51;;;;;;;;;;;;;;;15.13;100.00;156322.41;5008930;28;19927;-76
2022/09/09 08:09:17;;;;;;;;;;;;;;;15.13;100.00;156322.41;5012909;28;19928;-76
2022/09/09 08:11:45;;;;;;;;;;;;;;;15.09;100.00;156312.13;5005593;28;20380;-75
2022/09/09 08:14:11;;;;;;;;;;;;;;;15.14;100.00;156326.28;5003390;28;19917;-76
2022/09/09 08:16:38;;;;;;;;;;;;;;;15.36;100.00;156380.28;5005350;28;19920;-78
2022/09/09 08:19:07;;;;;;;;;;;;;;;15.57;100.00;156433.03;5021557;28;19967;-76
2022/09/09 08:21:34;;;;;;;;;;;;;;;15.68;100.00;156461.34;5005345;28;20369;-75
2022/09/09 08:24:00;;;;;;;;;;;;;;;15.59;100.00;156438.19;4991133;28;19917;-77
2022/09/09 08:26:31;;;;;;;;;;;;;;;15.58;100.00;156436.91;5018338;28;19947;-77
2022/09/09 08:28:57;;;;;;;;;;;;;;;15.54;100.00;156426.63;5007798;28;19921;-76
2022/09/09 08:31:27;;;;;;;;;;;;;;;15.56;100.00;156431.78;5019794;28;19953;-78
2022/09/09 08:33:54;;;;;;;;;;;;;;;15.59;100.00;156438.19;5024738;28;19920;-76
2022/09/09 08:36:21;;;;;;;;;;;;;;;15.55;100.00;156429.19;5010060;28;19917;-76
2022/09/09 08:38:47;;;;;;;;;;;;;;;15.66;100.00;156454.94;5007039;28;19924;-77
2022/09/09 08:41:21;;;;;;;;;;;;;;;15.66;100.00;156456.22;5024427;28;19912;-76
2022/09/09 08:43:48;;;;;;;;;;;;;;;15.67;100.00;156458.81;5019165;28;19967;-77
2022/09/09 08:46:23;;;;;;;;;;;;;;;15.75;100.00;156478.16;5004555;28;19913;-77
2022/09/09 08:49:16;;;;;;;;;;;;;;;15.95;100.00;156528.31;5020873;28;20401;-77
2022/09/09 08:51:41;;;;;;;;;;;;;;;16.21;100.00;156593.97;4998531;28;19987;-76
2022/09/09 08:54:09;;;;;;;;;;;;;;;16.35;100.00;156628.78;5021372;28;20361;-77
2022/09/09 08:56:35;;;;;;;;;;;;;;;16.37;100.00;156632.59;5018466;28;19939;-78
2022/09/09 08:59:03;;;;;;;;;;;;;;;16.44;100.00;156650.63;5007932;28;19959;-76
2022/09/09 09:01:55;;;;;;;;;;;;;;;16.61;100.00;156694.41;5001578;28;19917;-77
2022/09/09 09:04:55;;;;;;;;;;;;;;;16.68;100.00;156712.44;5025324;28;19928;-77
2022/09/09 09:07:36;;;;;;;;;;;;;;;16.83;100.00;156749.81;4981492;28;19917;-77
2022/09/09 09:10:23;;;;;;;;;;;;;;;16.88;100.00;156761.44;5032692;28;19913;-77
2022/09/09 09:12:50;;;;;;;;;;;;;;;16.84;100.00;156751.09;4986390;28;20358;-77
2022/09/09 09:15:20;;;;;;;;;;;;;;;16.89;100.00;156765.28;5021931;28;19913;-76
2022/09/09 09:17:48;;;;;;;;;;;;;;;16.91;100.00;156770.47;5005132;28;19917;-76
2022/09/09 09:20:16;;;;;;;;;;;;;;;16.89;100.00;156764.00;5003078;28;19971;-76
2022/09/09 09:22:42;;;;;;;;;;;;;;;16.89;100.00;156765.28;5011628;28;19962;-77
2022/09/09 09:25:17;;;;;;;;;;;;;;;17.01;100.00;156794.91;4990051;28;19924;-77
2022/09/09 09:27:49;;;;;;;;;;;;;;;17.08;100.00;156812.97;5010227;28;19914;-76
2022/09/09 09:30:18;;;;;;;;;;;;;;;17.15;100.00;156829.69;5003813;28;19913;-77
2022/09/09 09:32:53;;;;;;;;;;;;;;;17.09;100.00;156815.50;5018406;28;20505;-77
2022/09/09 09:35:19;;;;;;;;;;;;;;;17.32;100.00;156872.19;5012811;28;20381;-77
2022/09/09 09:37:46;;;;;;;;;;;;;;;17.51;100.00;156919.84;4995341;28;19913;-80
2022/09/09 09:40:14;;;;;;;;;;;;;;;17.52;100.00;156922.44;5006580;28;20479;-77
2022/09/09 09:42:54;;;;;;;;;;;;;;;17.54;100.00;156926.28;5000363;28;19920;-77
2022/09/09 09:45:20;;;;;;;;;;;;;;;17.71;100.00;156970.13;4991779;28;19951;-77
2022/09/09 09:47:46;;;;;;;;;;;;;;;17.81;100.00;156994.59;5019522;28;19913;-77
2022/09/09 09:50:18;;;;;;;;;;;;;;;17.81;100.00;156994.59;5021386;28;19914;-77
2022/09/09 09:52:53;;;;;;;;;;;;;;;18.03;100.00;157051.34;4982130;28;19941;-76
2022/09/09 09:55:18;;;;;;;;;;;;;;;17.93;100.00;157025.53;5016982;28;20324;-78
2022/09/09 09:57:45;;;;;;;;;;;;;;;18.04;100.00;157053.88;5023592;28;19972;-75
2022/09/09 10:00:14;;;;;;;;;;;;;;;18.03;100.00;157051.34;5010870;28;20532;-77
2022/09/09 10:02:43;;;;;;;;;;;;;;;18.15;100.00;157080.97;5020464;28;19917;-77
2022/09/09 10:05:18;;;;;;;;;;;;;;;18.25;100.00;157105.44;5008064;28;20281;-78
2022/09/09 10:08:00;;;;;;;;;;;;;;;18.37;100.00;157135.13;5003266;28;19921;-76
2022/09/09 10:10:33;;;;;;;;;;;;;;;18.71;100.00;157220.19;4988278;28;20247;-77
2022/09/09 10:13:25;;;;;;;;;;;;;;;18.76;100.00;157234.38;5026206;28;20006;-74
2022/09/09 10:15:51;;;;;;;;;;;;;;;18.95;100.00;157280.81;5018023;28;20318;-76
2022/09/09 10:18:25;;;;;;;;;;;;;;;18.99;100.00;157292.44;5000564;28;19913;-76
2022/09/09 10:20:53;;;;;;;;;;;;;;;19.34;100.00;157380.09;5021220;28;19917;-77
2022/09/09 10:23:44;;;;;;;;;;;;;;;19.55;100.00;157433.00;5010271;28;19956;-75
2022/09/09 10:26:19;;;;;;;;;;;;;;;19.96;99.23;157534.94;5040643;28;19962;-76
2022/09/09 10:28:45;;;;;;;;;;;;;;;20.18;99.58;157590.44;4999674;28;20301;-77
2022/09/09 10:31:19;;;;;;;;;;;;;;;20.00;100.00;157546.56;5003426;28;19921;-78
2022/09/09 10:33:50;;;;;;;;;;;;;;;19.55;99.02;157433.00;5025683;28;19920;-77
2022/09/09 10:36:26;;;;;;;;;;;;;;;19.28;100.00;157364.63;5010882;28;19913;-76
2022/09/09 10:39:05;;;;;;;;;;;;;;;19.15;100.00;157332.38;5015087;28;20301;-75
2022/09/09 10:41:33;;;;;;;;;;;;;;;19.11;100.00;157322.09;4993134;28;19921;-79
2022/09/09 10:44:04;;;;;;;;;;;;;;;18.92;100.00;157274.38;5018863;28;20827;-77
2022/09/09 10:46:45;;;;;;;;;;;;;;;18.74;100.00;157229.22;4991596;28;20417;-77
2022/09/09 10:49:30;;;;;;;;;;;;;;;18.65;100.00;157207.28;5008917;28;19917;-76
2022/09/09 10:51:55;;;;;;;;;;;;;;;18.54;100.00;157178.94;5017021;28;19921;-76
2022/09/09 10:54:42;;;;;;;;;;;;;;;18.68;100.00;157215.06;5010987;28;19921;-77
2022/09/09 10:57:13;;;;;;;;;;;;;;;19.09;100.00;157316.94;5023673;28;19944;-76
2022/09/09 10:59:47;;;;;;;;;;;;;;;19.38;100.00;157389.13;5008251;28;19917;-76
2022/09/09 11:02:17;;;;;;;;;;;;;;;19.65;100.00;157457.50;5020633;28;20448;-77
2022/09/09 11:04:44;;;;;;;;;;;;;;;19.69;100.00;157466.53;5019781;28;19921;-77
2022/09/09 11:07:12;;;;;;;;;;;;;;;19.58;100.00;157440.72;5027493;28;19917;-76
2022/09/09 11:09:44;;;;;;;;;;;;;;;19.31;100.00;157371.06;5022908;28;19913;-76
2022/09/09 11:12:12;;;;;;;;;;;;;;;19.28;100.00;157363.34;4991577;28;19976;-75
2022/09/09 11:14:44;;;;;;;;;;;;;;;19.13;100.00;157325.97;5025938;28;19917;-77
2022/09/09 11:17:12;;;;;;;;;;;;;;;19.18;100.00;157338.88;5009242;28;19916;-77
2022/09/09 11:19:42;;;;;;;;;;;;;;;19.05;100.00;157306.63;5008685;28;19923;-77
2022/09/09 11:22:27;;;;;;;;;;;;;;;18.95;100.00;157280.81;5019058;28;20015;-77
2022/09/09 11:24:54;;;;;;;;;;;;;;;19.03;100.00;157301.47;5020119;28;19917;-76
2022/09/09 11:27:25;;;;;;;;;;;;;;;19.11;100.00;157322.09;5007722;28;19967;-76
2022/09/09 11:30:02;;;;;;;;;;;;;;;19.02;100.00;157300.19;5022495;28;20367;-76
2022/09/09 11:32:47;;;;;;;;;;;;;;;18.88;100.00;157262.78;4998264;28;20004;-76
2022/09/09 11:35:22;;;;;;;;;;;;;;;18.82;100.00;157248.63;5020278;28;19913;-76
2022/09/09 11:38:03;;;;;;;;;;;;;;;18.89;100.00;157265.34;5009763;28;19917;-76
2022/09/09 11:40:30;;;;;;;;;;;;;;;18.80;100.00;157243.41;5000230;28;19920;-77
2022/09/09 11:43:09;;;;;;;;;;;;;;;18.81;100.00;157246.00;5021785;28;19917;-76
2022/09/09 11:45:35;;;;;;;;;;;;;;;18.92;100.00;157274.38;5013958;28;20480;-76
2022/09/09 11:48:02;;;;;;;;;;;;;;;19.06;100.00;157309.19;5007401;28;19913;-76
2022/09/09 11:50:32;;;;;;;;;;;;;;;19.17;100.00;157336.25;5020476;28;19935;-77
2022/09/09 11:53:13;;;;;;;;;;;;;;;19.51;100.00;157421.38;5014660;28;19953;-76
2022/09/09 11:55:39;;;;;;;;;;;;;;;20.06;99.56;157559.44;5005721;28;19917;-77
2022/09/09 11:58:10;;;;;;;;;;;;;;;20.86;96.99;157762.09;5022799;28;20013;-78
2022/09/09 12:00:37;;;;;;;;;;;;;;;21.56;94.55;157937.69;5020598;28;19967;-76
2022/09/09 12:03:03;;;;;;;;;;;;;;;22.05;87.72;158061.66;5013857;28;20345;-77
2022/09/09 12:05:39;;;;;;;;;;;;;;;21.68;88.18;157968.72;5006464;28;20342;-76
2022/09/09 12:08:05;;;;;;;;;;;;;;;21.04;89.86;157805.97;4989521;28;19917;-75
2022/09/09 12:10:32;;;;;;;;;;;;;;;20.45;95.21;157657.50;5015010;28;19957;-76
2022/09/09 12:13:16;;;;;;;;;;;;;;;20.17;96.75;157589.16;5022593;28;19917;-75
2022/09/09 12:15:50;;;;;;;;;;;;;;;20.00;97.32;157546.56;5030038;28;19913;-75
2022/09/09 12:18:22;;;;;;;;;;;;;;;19.93;98.57;157527.19;5012940;28;20004;-76
2022/09/09 12:21:07;;;;;;;;;;;;;;;19.86;98.09;157509.16;4987456;28;19952;-76
2022/09/09 12:23:36;;;;;;;;;;;;;;;19.70;99.05;157469.09;5018316;28;20301;-78
2022/09/09 12:26:20;;;;;;;;;;;;;;;19.77;100.00;157488.50;5028476;28;19996;-76
2022/09/09 12:28:57;;;;;;;;;;;;;;;19.75;98.41;157482.06;4987400;28;19949;-76
2022/09/09 12:31:32;;;;;;;;;;;;;;;19.70;98.93;157470.38;4993055;28;19917;-76
2022/09/09 12:34:09;;;;;;;;;;;;;;;19.63;100.00;157452.34;5009829;28;19917;-75